Time;durP1;ratioP1;P1;durP2;ratioP2;P2;SDS_P1;SDS_P2;PMS_P1;PMS_P2;Temp;Humidity;BMP_temperature;BMP_pressure;BME280_temperature;BME280_humidity;BME280_pressure;Samples;Min_cycle;Max_cycle;Signal;HPM_P1;HPM_P2
2023/07/02 00:01:47;;;;;;;22.48;8.40;;;15.80;99.90;;;;;;4994798;28;20402;-61
2023/07/02 00:04:16;;;;;;;19.58;8.50;;;15.80;99.90;;;;;;4995291;28;20034;-61
2023/07/02 00:06:45;;;;;;;25.60;9.40;;;15.70;99.90;;;;;;4994844;28;20073;-61
2023/07/02 00:09:12;;;;;;;19.90;8.55;;;15.70;99.90;;;;;;4994557;28;20033;-61
2023/07/02 00:11:43;;;;;;;19.05;7.63;;;15.70;99.90;;;;;;4995493;28;20042;-62
2023/07/02 00:14:10;;;;;;;22.30;8.32;;;15.70;99.90;;;;;;4978592;28;20058;-62
2023/07/02 00:16:38;;;;;;;23.25;8.75;;;15.70;99.90;;;;;;4993954;28;20562;-61
2023/07/02 00:19:04;;;;;;;28.83;8.55;;;15.70;99.90;;;;;;4978081;28;20092;-62
2023/07/02 00:21:33;;;;;;;23.15;8.50;;;15.60;99.90;;;;;;5012681;28;20042;-61
2023/07/02 00:23:59;;;;;;;28.55;10.10;;;15.60;99.90;;;;;;4994046;28;20048;-61
2023/07/02 00:26:26;;;;;;;22.95;8.82;;;15.60;99.90;;;;;;4994939;28;20041;-61
2023/07/02 00:28:53;;;;;;;23.27;9.60;;;15.60;99.90;;;;;;5011677;28;20143;-62
2023/07/02 00:31:19;;;;;;;18.13;8.18;;;15.60;99.90;;;;;;4978743;28;20056;-61
2023/07/02 00:33:45;;;;;;;20.50;8.63;;;15.60;99.90;;;;;;4994947;28;20117;-62
2023/07/02 00:36:14;;;;;;;24.35;9.05;;;15.50;99.90;;;;;;5011916;28;20111;-61
2023/07/02 00:38:47;;;;;;;25.48;9.18;;;15.50;99.90;;;;;;5011884;28;20073;-62
2023/07/02 00:41:13;;;;;;;23.60;9.93;;;15.50;99.90;;;;;;4994803;28;20445;-62
2023/07/02 00:43:43;;;;;;;20.23;8.77;;;15.50;99.90;;;;;;4994253;28;20049;-62
2023/07/02 00:46:17;;;;;;;25.83;9.40;;;15.50;99.90;;;;;;4978666;28;20490;-62
2023/07/02 00:48:45;;;;;;;18.77;8.70;;;15.50;99.90;;;;;;4993912;28;20069;-62
2023/07/02 00:51:15;;;;;;;18.10;8.00;;;15.40;99.90;;;;;;4994115;28;20042;-62
2023/07/02 00:53:40;;;;;;;22.58;9.40;;;15.40;99.90;;;;;;4994641;28;20046;-61
2023/07/02 00:56:07;;;;;;;20.65;8.55;;;15.40;99.90;;;;;;4978623;28;20096;-62
2023/07/02 00:58:36;;;;;;;28.52;9.43;;;15.40;99.90;;;;;;5011155;28;20459;-62
2023/07/02 01:01:02;;;;;;;22.00;8.68;;;15.40;99.90;;;;;;4994478;28;20048;-62
2023/07/02 01:03:28;;;;;;;22.05;9.45;;;15.40;99.90;;;;;;4994562;28;20041;-62
2023/07/02 01:05:54;;;;;;;25.15;8.65;;;15.40;99.90;;;;;;4993575;28;20046;-62
2023/07/02 01:08:20;;;;;;;31.25;9.75;;;15.40;99.90;;;;;;4994310;28;20042;-62
2023/07/02 01:10:46;;;;;;;26.27;9.07;;;15.40;99.90;;;;;;5011730;28;20037;-63
2023/07/02 01:13:20;;;;;;;26.48;9.68;;;15.40;99.90;;;;;;4977607;28;20128;-62
2023/07/02 01:15:47;;;;;;;24.48;9.85;;;15.40;99.90;;;;;;4993996;28;20418;-62
2023/07/02 01:18:14;;;;;;;21.10;8.52;;;15.30;99.90;;;;;;4993298;28;20046;-62
2023/07/02 01:20:41;;;;;;;18.92;8.95;;;15.30;99.90;;;;;;4994365;28;20045;-62
2023/07/02 01:23:09;;;;;;;20.52;9.57;;;15.30;99.90;;;;;;4994674;28;20049;-62
2023/07/02 01:25:36;;;;;;;25.75;10.00;;;15.30;99.90;;;;;;4977285;28;20124;-62
2023/07/02 01:28:03;;;;;;;18.58;8.68;;;15.20;99.90;;;;;;5015651;28;20033;-62
2023/07/02 01:30:28;;;;;;;23.38;10.20;;;15.20;99.90;;;;;;5015588;28;20093;-62
2023/07/02 01:32:54;;;;;;;21.70;7.93;;;15.10;99.90;;;;;;5015019;28;20050;-62
2023/07/02 01:35:20;;;;;;;21.45;8.57;;;15.10;99.90;;;;;;5015311;28;20038;-62
2023/07/02 01:37:46;;;;;;;23.20;10.80;;;15.10;99.90;;;;;;4981762;28;20120;-62
2023/07/02 01:40:11;;;;;;;24.10;9.65;;;15.10;99.90;;;;;;5015170;28;20038;-62
2023/07/02 01:42:38;;;;;;;23.42;8.80;;;15.00;99.90;;;;;;4997973;28;20092;-62
2023/07/02 01:45:04;;;;;;;24.73;9.48;;;15.00;99.90;;;;;;4997575;28;20046;-62
2023/07/02 01:47:30;;;;;;;25.20;9.40;;;15.00;99.90;;;;;;4997244;28;20049;-62
2023/07/02 01:49:55;;;;;;;22.17;8.75;;;14.90;99.90;;;;;;4997502;28;20045;-62
2023/07/02 01:52:21;;;;;;;24.45;9.35;;;14.90;99.90;;;;;;4997759;28;20049;-62
2023/07/02 01:54:47;;;;;;;18.25;9.35;;;14.90;99.90;;;;;;5014441;28;20042;-63
2023/07/02 01:57:12;;;;;;;23.52;8.40;;;14.80;99.90;;;;;;4981104;28;20495;-62
2023/07/02 01:59:38;;;;;;;20.50;8.93;;;14.80;99.90;;;;;;4997590;28;20467;-63
2023/07/02 02:02:04;;;;;;;23.52;7.88;;;14.80;99.90;;;;;;4996595;28;20048;-62
2023/07/02 02:04:30;;;;;;;23.83;9.68;;;14.80;99.90;;;;;;4997719;28;20046;-62
2023/07/02 02:06:56;;;;;;;23.48;8.98;;;14.70;99.90;;;;;;4981665;28;20379;-62
2023/07/02 02:09:23;;;;;;;20.98;8.52;;;14.70;99.90;;;;;;4996224;28;20042;-63
2023/07/02 02:11:50;;;;;;;20.55;9.90;;;14.70;99.90;;;;;;4988875;28;20108;-62
2023/07/02 02:14:16;;;;;;;22.13;9.32;;;14.70;99.90;;;;;;4997297;28;20057;-62
2023/07/02 02:16:45;;;;;;;25.15;8.75;;;14.60;99.90;;;;;;4980283;28;20037;-62
2023/07/02 02:19:11;;;;;;;21.42;8.00;;;14.60;99.90;;;;;;5015169;28;20132;-62
2023/07/02 02:21:37;;;;;;;23.00;8.52;;;14.60;99.90;;;;;;5014412;28;20377;-62
2023/07/02 02:24:03;;;;;;;19.63;9.45;;;14.60;99.90;;;;;;4997177;28;20100;-63
2023/07/02 02:26:29;;;;;;;23.58;8.82;;;14.60;99.90;;;;;;4997144;28;20042;-62
2023/07/02 02:28:56;;;;;;;20.40;9.82;;;14.50;99.90;;;;;;5013567;28;20506;-63
2023/07/02 02:31:21;;;;;;;22.13;9.88;;;14.50;99.90;;;;;;5014738;28;20058;-62
2023/07/02 02:33:47;;;;;;;25.48;9.50;;;14.50;99.90;;;;;;4997110;28;20065;-62
2023/07/02 02:36:12;;;;;;;26.27;9.80;;;14.50;99.90;;;;;;5013617;28;20033;-62
2023/07/02 02:38:38;;;;;;;22.85;9.77;;;14.40;99.90;;;;;;4995901;28;20498;-62
2023/07/02 02:41:04;;;;;;;25.17;9.68;;;14.40;99.90;;;;;;4996948;28;20172;-62
2023/07/02 02:43:30;;;;;;;25.30;9.48;;;14.40;99.90;;;;;;4995959;28;20113;-62
2023/07/02 02:45:55;;;;;;;20.35;8.40;;;14.40;99.90;;;;;;4996588;28;20054;-62
2023/07/02 02:48:22;;;;;;;22.15;9.38;;;14.40;99.90;;;;;;5014199;28;20038;-62
2023/07/02 02:50:48;;;;;;;20.77;9.30;;;14.40;99.90;;;;;;4996063;28;20105;-62
2023/07/02 02:53:14;;;;;;;22.33;10.05;;;14.40;99.90;;;;;;4996922;28;20071;-62
2023/07/02 02:55:40;;;;;;;17.50;9.02;;;14.40;99.90;;;;;;4980306;28;20082;-63
2023/07/02 02:58:05;;;;;;;24.73;8.70;;;14.40;99.90;;;;;;4995742;28;20044;-62
2023/07/02 03:00:31;;;;;;;23.25;8.35;;;14.50;99.90;;;;;;4980355;28;20121;-62
2023/07/02 03:02:58;;;;;;;23.55;9.30;;;14.50;99.90;;;;;;5013938;28;20041;-62
2023/07/02 03:05:23;;;;;;;19.05;8.95;;;14.50;99.90;;;;;;4995421;28;20050;-62
2023/07/02 03:07:51;;;;;;;23.35;8.00;;;14.60;99.90;;;;;;4994825;28;20056;-63
2023/07/02 03:10:17;;;;;;;20.70;8.55;;;14.60;99.90;;;;;;5006633;28;20037;-62
2023/07/02 03:12:42;;;;;;;23.52;8.82;;;14.60;99.90;;;;;;5015231;28;20067;-62
2023/07/02 03:15:09;;;;;;;17.35;7.55;;;14.70;99.90;;;;;;5033771;28;21032;-62
2023/07/02 03:17:35;;;;;;;27.67;8.82;;;14.70;99.90;;;;;;5015445;28;20049;-62
2023/07/02 03:20:01;;;;;;;23.67;8.48;;;14.70;99.90;;;;;;5032414;28;20103;-62
2023/07/02 03:22:26;;;;;;;22.75;8.20;;;14.80;99.90;;;;;;5033275;28;20034;-62
2023/07/02 03:24:52;;;;;;;26.35;8.35;;;14.80;99.90;;;;;;5014845;28;20049;-63
2023/07/02 03:27:18;;;;;;;26.30;9.27;;;14.80;99.90;;;;;;5015604;28;20435;-64
2023/07/02 03:29:43;;;;;;;19.35;7.80;;;14.80;99.90;;;;;;5015499;28;20041;-63
2023/07/02 03:32:09;;;;;;;24.55;8.75;;;14.90;99.90;;;;;;5005562;28;20042;-63
2023/07/02 03:34:35;;;;;;;18.80;7.78;;;14.90;99.90;;;;;;4995702;28;20049;-63
2023/07/02 03:37:00;;;;;;;17.15;7.22;;;14.90;99.90;;;;;;4996096;28;20126;-63
2023/07/02 03:39:26;;;;;;;21.45;8.52;;;14.90;99.90;;;;;;5012274;28;20038;-63
2023/07/02 03:41:51;;;;;;;16.23;7.63;;;15.00;99.90;;;;;;4995716;28;20069;-63
2023/07/02 03:44:19;;;;;;;23.52;8.18;;;15.00;99.90;;;;;;5013061;28;20034;-63
2023/07/02 03:46:45;;;;;;;19.38;7.80;;;15.00;99.90;;;;;;4994114;28;20042;-63
2023/07/02 03:49:10;;;;;;;17.98;8.00;;;15.00;99.90;;;;;;4993249;28;20042;-63
2023/07/02 03:51:36;;;;;;;19.33;7.72;;;15.00;99.90;;;;;;4976125;28;20124;-63
2023/07/02 03:54:02;;;;;;;24.27;8.27;;;15.00;99.90;;;;;;4992477;28;20051;-63
2023/07/02 03:56:28;;;;;;;17.58;8.30;;;15.00;99.90;;;;;;4988451;28;20399;-63
2023/07/02 03:58:53;;;;;;;19.50;7.85;;;15.00;99.90;;;;;;4995463;28;20046;-63
2023/07/02 04:01:19;;;;;;;19.25;8.95;;;15.10;99.90;;;;;;4978416;28;20133;-63
2023/07/02 04:03:52;;;;;;;20.23;8.30;;;15.10;99.90;;;;;;5013158;28;20080;-63
2023/07/02 04:06:18;;;;;;;22.95;8.40;;;15.10;99.90;;;;;;4994605;28;20129;-62
2023/07/02 04:08:44;;;;;;;21.33;7.65;;;15.10;99.90;;;;;;4994081;28;20117;-62
2023/07/02 04:11:15;;;;;;;19.02;8.20;;;15.20;99.90;;;;;;4995392;28;20037;-63
2023/07/02 04:13:41;;;;;;;16.63;7.25;;;15.10;99.90;;;;;;4978795;28;20038;-63
2023/07/02 04:16:07;;;;;;;17.52;6.55;;;15.10;99.90;;;;;;5011715;28;20561;-63
2023/07/02 04:18:33;;;;;;;17.42;6.90;;;15.00;99.90;;;;;;5012779;28;20085;-63
2023/07/02 04:21:00;;;;;;;17.60;6.78;;;15.00;99.90;;;;;;4978193;28;20038;-63
2023/07/02 04:23:26;;;;;;;16.45;6.82;;;15.00;99.90;;;;;;5012399;28;20104;-62
2023/07/02 04:25:52;;;;;;;14.68;6.07;;;15.00;99.90;;;;;;5011965;28;20038;-63
2023/07/02 04:28:18;;;;;;;14.82;5.53;;;14.90;99.90;;;;;;5011979;28;20654;-62
2023/07/02 04:30:51;;;;;;;18.25;6.53;;;14.90;99.90;;;;;;4995008;28;20486;-62
2023/07/02 04:33:17;;;;;;;14.50;5.93;;;14.90;99.90;;;;;;5012492;28;20113;-63
2023/07/02 04:35:43;;;;;;;13.65;5.93;;;14.90;99.90;;;;;;5011226;28;20126;-62
2023/07/02 04:38:09;;;;;;;16.73;5.80;;;14.90;99.90;;;;;;4995260;28;20052;-62
2023/07/02 04:40:34;;;;;;;15.43;6.38;;;15.00;99.90;;;;;;5012079;28;20483;-62
2023/07/02 04:43:00;;;;;;;12.52;5.35;;;15.00;99.90;;;;;;4977649;28;20041;-62
2023/07/02 04:45:27;;;;;;;17.10;6.00;;;15.10;99.90;;;;;;4994594;28;20387;-63
2023/07/02 04:47:52;;;;;;;16.40;6.40;;;15.20;99.90;;;;;;4994976;28;20042;-62
2023/07/02 04:50:24;;;;;;;12.45;5.65;;;15.30;99.90;;;;;;5011440;28;20041;-62
2023/07/02 04:52:49;;;;;;;17.17;5.93;;;15.30;99.90;;;;;;4994326;28;20042;-62
2023/07/02 04:55:15;;;;;;;13.35;5.38;;;15.30;99.90;;;;;;4994282;28;20122;-62
2023/07/02 04:57:41;;;;;;;17.02;5.68;;;15.30;99.90;;;;;;4977954;28;20042;-62
2023/07/02 05:00:08;;;;;;;13.32;6.13;;;15.20;99.90;;;;;;5012504;28;20100;-63
2023/07/02 05:02:34;;;;;;;16.75;6.32;;;15.20;99.90;;;;;;5015890;28;20053;-63
2023/07/02 05:04:59;;;;;;;16.67;6.88;;;15.20;99.90;;;;;;5015275;28;20050;-63
2023/07/02 05:07:25;;;;;;;16.15;6.38;;;15.10;99.90;;;;;;5015550;28;20052;-63
2023/07/02 05:09:52;;;;;;;13.77;6.40;;;15.10;99.90;;;;;;4981869;28;20041;-63
2023/07/02 05:12:23;;;;;;;16.10;6.82;;;15.10;99.90;;;;;;4997811;28;20038;-62
2023/07/02 05:14:49;;;;;;;14.90;5.88;;;15.20;99.90;;;;;;5015990;28;20470;-63
2023/07/02 05:17:14;;;;;;;17.17;6.93;;;15.30;99.90;;;;;;4998049;28;20071;-63
2023/07/02 05:19:41;;;;;;;17.20;6.35;;;15.50;99.90;;;;;;4978864;28;20499;-63
2023/07/02 05:22:08;;;;;;;17.65;6.85;;;15.60;99.90;;;;;;4996464;28;20040;-63
2023/07/02 05:24:33;;;;;;;16.50;6.55;;;15.70;99.90;;;;;;4977808;28;20105;-63
2023/07/02 05:26:59;;;;;;;20.40;6.60;;;15.80;99.90;;;;;;4978959;28;20046;-63
2023/07/02 05:29:24;;;;;;;17.52;6.70;;;15.80;99.90;;;;;;4996320;28;20089;-63
2023/07/02 05:31:50;;;;;;;20.10;6.25;;;15.80;99.90;;;;;;4977992;28;20450;-63
2023/07/02 05:34:16;;;;;;;14.02;6.05;;;15.80;99.90;;;;;;4978494;28;20121;-63
2023/07/02 05:36:41;;;;;;;15.15;5.90;;;15.70;99.90;;;;;;4978200;28;20038;-63
2023/07/02 05:39:07;;;;;;;17.75;6.43;;;15.70;99.90;;;;;;5001901;28;20039;-63
2023/07/02 05:41:33;;;;;;;14.52;6.22;;;15.90;99.90;;;;;;5015160;28;20509;-63
2023/07/02 05:43:59;;;;;;;12.75;5.75;;;16.00;99.90;;;;;;5015637;28;20030;-63
2023/07/02 05:46:25;;;;;;;15.55;6.43;;;16.10;99.90;;;;;;5001933;28;20049;-63
2023/07/02 05:48:51;;;;;;;16.33;5.75;;;16.20;99.90;;;;;;4998941;28;20043;-63
2023/07/02 05:51:21;;;;;;;12.23;5.78;;;16.30;99.90;;;;;;4995021;28;20045;-64
2023/07/02 05:53:47;;;;;;;11.68;5.55;;;16.40;99.90;;;;;;4977402;28;20096;-63
2023/07/02 05:56:13;;;;;;;15.02;5.82;;;16.50;99.90;;;;;;4978019;28;20121;-63
2023/07/02 05:58:38;;;;;;;17.20;6.18;;;16.50;99.90;;;;;;4988317;28;20034;-64
2023/07/02 06:01:05;;;;;;;14.30;6.30;;;16.60;99.90;;;;;;4970527;28;20050;-64
2023/07/02 06:03:32;;;;;;;18.80;5.25;;;16.70;99.90;;;;;;4955951;28;20074;-63
2023/07/02 06:05:57;;;;;;;16.27;5.85;;;16.70;99.90;;;;;;4972962;28;20378;-64
2023/07/02 06:08:23;;;;;;;15.77;4.70;;;16.70;99.90;;;;;;4987444;28;20048;-64
2023/07/02 06:10:49;;;;;;;17.95;5.55;;;16.80;99.90;;;;;;4994828;28;20034;-63
2023/07/02 06:13:15;;;;;;;10.98;3.88;;;16.70;99.90;;;;;;4993340;28;20396;-63
2023/07/02 06:15:41;;;;;;;10.93;4.15;;;16.80;99.90;;;;;;4993924;28;20414;-63
2023/07/02 06:18:08;;;;;;;14.20;4.45;;;16.80;99.90;;;;;;4986027;28;20495;-63
2023/07/02 06:20:33;;;;;;;20.23;5.40;;;16.80;99.90;;;;;;5011557;28;20057;-63
2023/07/02 06:22:59;;;;;;;12.07;4.25;;;16.80;99.90;;;;;;4994413;28;20129;-62
2023/07/02 06:25:25;;;;;;;11.25;4.07;;;16.80;99.90;;;;;;4993995;28;20475;-62
2023/07/02 06:27:52;;;;;;;13.10;4.32;;;16.80;99.90;;;;;;4990858;28;20042;-63
2023/07/02 06:30:18;;;;;;;9.57;3.65;;;16.90;99.90;;;;;;4991920;28;20411;-62
2023/07/02 06:32:43;;;;;;;12.55;4.55;;;17.00;99.90;;;;;;5001890;28;20037;-62
2023/07/02 06:35:09;;;;;;;14.55;4.32;;;17.00;99.90;;;;;;4973785;28;20046;-63
2023/07/02 06:37:34;;;;;;;14.68;4.35;;;17.10;99.90;;;;;;4993813;28;20503;-63
2023/07/02 06:40:00;;;;;;;11.10;4.47;;;17.10;99.90;;;;;;4984202;28;20411;-62
2023/07/02 06:42:26;;;;;;;11.57;4.68;;;17.00;99.90;;;;;;4991287;28;20388;-63
2023/07/02 06:44:51;;;;;;;9.43;3.25;;;16.90;99.90;;;;;;4990143;28;20042;-63
2023/07/02 06:47:17;;;;;;;12.23;3.78;;;17.00;99.90;;;;;;4991912;28;20038;-63
2023/07/02 06:49:43;;;;;;;12.38;4.53;;;17.10;99.90;;;;;;4990717;28;20045;-63
2023/07/02 06:52:09;;;;;;;12.00;3.78;;;17.10;99.90;;;;;;4974735;28;20042;-63
2023/07/02 06:54:35;;;;;;;11.07;3.22;;;17.20;99.90;;;;;;4974612;28;20042;-63
2023/07/02 06:57:01;;;;;;;9.85;3.85;;;17.20;99.90;;;;;;4977746;28;20049;-64
2023/07/02 06:59:27;;;;;;;13.32;4.00;;;17.20;99.90;;;;;;4991600;28;20046;-62
2023/07/02 07:01:52;;;;;;;20.05;4.93;;;17.20;99.90;;;;;;4993332;28;20050;-63
2023/07/02 07:04:18;;;;;;;12.85;4.20;;;17.30;99.90;;;;;;4978916;28;20057;-63
2023/07/02 07:06:44;;;;;;;13.45;4.07;;;17.30;99.90;;;;;;4974237;28;20093;-62
2023/07/02 07:09:10;;;;;;;17.13;4.50;;;17.20;99.90;;;;;;4974060;28;20045;-64
2023/07/02 07:11:35;;;;;;;9.48;4.53;;;17.20;99.90;;;;;;4990505;28;20045;-63
2023/07/02 07:14:01;;;;;;;9.48;4.22;;;17.30;99.90;;;;;;4991133;28;20101;-62
2023/07/02 07:16:27;;;;;;;14.98;4.25;;;17.50;99.90;;;;;;5009164;28;20427;-63
2023/07/02 07:18:53;;;;;;;13.75;3.88;;;17.50;99.90;;;;;;4992341;28;20046;-64
2023/07/02 07:21:18;;;;;;;13.35;4.53;;;17.40;99.90;;;;;;4977377;28;20045;-64
2023/07/02 07:23:44;;;;;;;10.05;4.00;;;17.40;99.90;;;;;;4992491;28;20049;-63
2023/07/02 07:26:10;;;;;;;14.93;4.05;;;17.50;99.90;;;;;;4991583;28;20097;-63
2023/07/02 07:28:36;;;;;;;11.90;4.10;;;17.60;99.90;;;;;;5000378;28;20108;-63
2023/07/02 07:31:02;;;;;;;14.48;4.80;;;17.70;99.90;;;;;;4993565;28;20488;-63
2023/07/02 07:33:27;;;;;;;12.05;4.50;;;17.70;99.90;;;;;;4979780;28;20442;-63
2023/07/02 07:35:53;;;;;;;8.60;3.28;;;17.80;99.90;;;;;;5009898;28;20061;-63
2023/07/02 07:38:19;;;;;;;11.95;3.90;;;17.90;99.90;;;;;;4991753;28;20117;-63
2023/07/02 07:40:45;;;;;;;9.15;3.85;;;17.80;99.90;;;;;;4974957;28;20145;-62
2023/07/02 07:43:10;;;;;;;11.88;3.92;;;17.80;99.90;;;;;;4992092;28;20133;-62
2023/07/02 07:45:37;;;;;;;9.00;3.20;;;17.60;99.90;;;;;;4998291;28;20129;-62
2023/07/02 07:48:04;;;;;;;7.15;3.50;;;17.40;99.90;;;;;;4996830;28;20519;-62
2023/07/02 07:50:30;;;;;;;14.15;4.57;;;17.20;99.90;;;;;;5000490;28;20042;-63
2023/07/02 07:52:55;;;;;;;13.13;4.43;;;17.00;99.90;;;;;;4989499;28;20044;-63
2023/07/02 07:55:21;;;;;;;13.65;5.05;;;16.70;99.90;;;;;;4973004;28;20050;-64
2023/07/02 07:57:47;;;;;;;17.63;5.07;;;16.40;99.90;;;;;;4988155;28;20042;-64
2023/07/02 08:00:13;;;;;;;13.10;4.35;;;16.20;99.90;;;;;;4989548;28;20046;-63
2023/07/02 08:02:39;;;;;;;14.93;4.82;;;15.90;99.90;;;;;;5006588;28;20038;-64
2023/07/02 08:05:06;;;;;;;12.68;4.07;;;15.80;99.90;;;;;;4987988;28;20396;-63
2023/07/02 08:07:32;;;;;;;12.63;4.60;;;15.80;99.90;;;;;;4990519;28;20096;-61
2023/07/02 08:09:58;;;;;;;16.88;5.18;;;16.00;99.90;;;;;;4990841;28;20038;-63
2023/07/02 08:12:24;;;;;;;16.60;5.32;;;16.30;99.90;;;;;;5008534;28;20040;-63
2023/07/02 08:14:49;;;;;;;11.65;4.65;;;16.50;99.90;;;;;;4991236;28;20441;-64
2023/07/02 08:17:15;;;;;;;15.18;4.50;;;16.60;99.90;;;;;;4992036;28;20050;-63
2023/07/02 08:19:41;;;;;;;11.45;4.40;;;16.70;99.90;;;;;;4991791;28;20525;-64
2023/07/02 08:22:07;;;;;;;12.40;4.38;;;16.70;99.90;;;;;;4991520;28;20045;-63
2023/07/02 08:24:33;;;;;;;16.05;4.50;;;16.70;99.90;;;;;;4992005;28;20132;-63
2023/07/02 08:27:01;;;;;;;14.75;4.53;;;16.80;99.90;;;;;;4992182;28;20124;-63
2023/07/02 08:29:26;;;;;;;10.95;4.00;;;16.90;99.90;;;;;;5009687;28;20070;-62
2023/07/02 08:31:52;;;;;;;13.48;3.70;;;16.90;99.90;;;;;;4994549;28;20081;-62
2023/07/02 08:34:18;;;;;;;10.30;3.83;;;16.90;99.90;;;;;;4993206;28;20045;-62
2023/07/02 08:36:43;;;;;;;9.85;4.20;;;17.10;99.90;;;;;;4992690;28;20049;-62
2023/07/02 08:39:10;;;;;;;14.43;4.20;;;17.10;99.90;;;;;;4978837;28;20045;-62
2023/07/02 08:41:45;;;;;;;15.02;6.72;;;17.00;99.90;;;;;;4993951;28;20112;-63
2023/07/02 08:44:15;;;;;;;8.20;3.33;;;17.10;99.90;;;;;;4994605;28;20452;-63
2023/07/02 08:46:42;;;;;;;9.98;3.47;;;17.20;99.90;;;;;;4975389;28;20065;-62
2023/07/02 08:49:08;;;;;;;6.75;3.08;;;17.40;99.90;;;;;;4999298;28;20077;-62
2023/07/02 08:51:34;;;;;;;8.10;3.55;;;17.50;99.90;;;;;;4994721;28;20041;-63
2023/07/02 08:54:03;;;;;;;16.55;3.65;;;17.50;99.90;;;;;;5012287;28;20054;-62
2023/07/02 08:56:29;;;;;;;12.93;3.55;;;17.50;99.90;;;;;;4977454;28;20046;-63
2023/07/02 08:58:55;;;;;;;11.25;3.30;;;17.60;99.90;;;;;;4994844;28;20045;-63
2023/07/02 09:01:21;;;;;;;10.18;3.88;;;17.70;99.90;;;;;;4978354;28;20387;-63
2023/07/02 09:03:48;;;;;;;11.38;3.70;;;17.90;99.90;;;;;;4993825;28;20053;-62
2023/07/02 09:06:18;;;;;;;15.88;3.80;;;17.90;99.90;;;;;;4994610;28;20035;-62
2023/07/02 09:08:43;;;;;;;11.30;4.60;;;17.90;99.90;;;;;;5011552;28;20033;-59
2023/07/02 09:11:13;;;;;;;11.98;2.95;;;18.00;99.90;;;;;;5011394;28;20034;-58
2023/07/02 09:14:00;;;;;;;8.63;3.25;;;18.00;99.90;;;;;;4994751;28;20045;-59
2023/07/02 09:16:31;;;;;;;9.52;3.10;;;18.10;99.90;;;;;;4993454;28;20061;-63
2023/07/02 09:19:05;;;;;;;12.20;4.20;;;18.30;99.90;;;;;;4994655;28;20112;-63
2023/07/02 09:21:45;;;;;;;7.38;3.30;;;18.40;99.90;;;;;;5011833;28;20033;-63
2023/07/02 09:24:15;;;;;;;11.00;3.78;;;18.40;99.90;;;;;;5011747;28;20045;-63
2023/07/02 09:26:49;;;;;;;12.70;3.50;;;18.50;99.90;;;;;;5012006;28;20061;-62
2023/07/02 09:29:30;;;;;;;13.23;3.78;;;18.60;99.90;;;;;;4978277;28;20034;-63
2023/07/02 09:32:00;;;;;;;9.02;3.17;;;18.50;99.90;;;;;;4993499;28;20535;-62
2023/07/02 09:34:33;;;;;;;8.63;3.00;;;18.40;99.90;;;;;;4994564;28;20042;-63
2023/07/02 09:37:01;;;;;;;13.25;3.17;;;18.40;99.90;;;;;;4994165;28;20116;-63
2023/07/02 09:39:31;;;;;;;10.60;3.13;;;18.40;99.90;;;;;;5010744;28;20394;-63
2023/07/02 09:41:58;;;;;;;8.23;3.38;;;18.50;99.70;;;;;;4993774;28;20041;-62
2023/07/02 09:44:29;;;;;;;10.60;3.35;;;18.50;99.90;;;;;;4993339;28;20077;-62
2023/07/02 09:47:05;;;;;;;10.60;3.65;;;18.50;99.90;;;;;;4994771;28;20048;-62
2023/07/02 09:49:35;;;;;;;9.77;3.58;;;18.20;99.90;;;;;;4981536;28;20045;-62
2023/07/02 09:52:03;;;;;;;8.80;3.78;;;18.10;99.90;;;;;;4996783;28;20487;-62
2023/07/02 09:54:30;;;;;;;13.10;3.53;;;18.20;99.90;;;;;;5014906;28;20040;-63
2023/07/02 09:56:57;;;;;;;10.32;3.22;;;18.40;99.90;;;;;;5014966;28;20435;-62
2023/07/02 09:59:23;;;;;;;7.45;3.70;;;18.70;99.90;;;;;;5014270;28;20041;-63
2023/07/02 10:01:50;;;;;;;10.70;3.10;;;18.80;99.90;;;;;;4996602;28;20046;-62
2023/07/02 10:04:18;;;;;;;7.88;3.08;;;18.80;99.60;;;;;;5013395;28;20125;-62
2023/07/02 10:06:46;;;;;;;13.85;3.78;;;18.90;99.90;;;;;;5010606;28;20488;-62
2023/07/02 10:09:12;;;;;;;9.68;3.95;;;18.90;99.90;;;;;;4993585;28;20048;-62
2023/07/02 10:11:37;;;;;;;10.65;4.18;;;18.70;99.90;;;;;;4993347;28;20030;-65
2023/07/02 10:14:03;;;;;;;9.75;4.70;;;18.40;99.90;;;;;;4994084;28;20511;-61
2023/07/02 10:16:31;;;;;;;13.95;4.53;;;18.30;99.90;;;;;;4994011;28;20478;-62
2023/07/02 10:19:17;;;;;;;13.52;4.28;;;18.30;99.90;;;;;;4993709;28;20050;-62
2023/07/02 10:21:45;;;;;;;9.70;3.67;;;18.40;99.90;;;;;;4992891;28;20133;-62
2023/07/02 10:24:16;;;;;;;11.35;3.30;;;18.40;99.90;;;;;;4994371;28;20057;-61
2023/07/02 10:26:56;;;;;;;10.77;4.03;;;18.50;99.90;;;;;;4977008;28;20060;-62
2023/07/02 10:29:26;;;;;;;11.65;3.65;;;18.60;99.90;;;;;;5012010;28;20033;-62
2023/07/02 10:31:56;;;;;;;12.13;4.10;;;18.70;99.90;;;;;;5011512;28;20046;-62
2023/07/02 10:34:35;;;;;;;9.65;3.55;;;18.80;99.90;;;;;;4993219;28;20049;-61
2023/07/02 10:37:02;;;;;;;13.27;3.92;;;19.00;99.90;;;;;;4989657;28;20038;-61
2023/07/02 10:39:31;;;;;;;8.10;3.33;;;19.10;99.90;;;;;;4993982;28;20056;-62
2023/07/02 10:42:07;;;;;;;12.18;2.95;;;19.00;99.90;;;;;;4972437;28;20038;-62
2023/07/02 10:44:33;;;;;;;12.10;3.75;;;18.90;99.90;;;;;;5009290;28;20563;-62
2023/07/02 10:47:00;;;;;;;13.63;3.83;;;18.70;99.90;;;;;;4989350;28;20396;-62
2023/07/02 10:49:33;;;;;;;10.73;3.65;;;18.50;99.90;;;;;;4967670;28;20046;-62
2023/07/02 10:52:03;;;;;;;9.77;3.20;;;18.40;99.90;;;;;;5011919;28;20030;-62
2023/07/02 10:54:58;;;;;;;9.85;3.65;;;18.40;99.90;;;;;;5011440;28;20037;-62
2023/07/02 10:57:24;;;;;;;11.32;3.45;;;18.30;99.90;;;;;;4994028;28;20053;-62
2023/07/02 10:59:49;;;;;;;10.82;3.45;;;18.20;99.90;;;;;;5009499;28;20042;-62
2023/07/02 11:02:16;;;;;;;8.43;2.70;;;18.10;99.90;;;;;;4984379;28;20511;-62
2023/07/02 11:04:41;;;;;;;7.80;2.97;;;18.10;99.90;;;;;;5009279;28;20041;-62
2023/07/02 11:07:07;;;;;;;6.63;2.25;;;18.30;99.90;;;;;;5009897;28;20397;-62
2023/07/02 11:09:33;;;;;;;12.23;2.90;;;18.50;99.90;;;;;;4976364;28;20464;-62
2023/07/02 11:12:00;;;;;;;10.80;3.08;;;18.80;99.90;;;;;;4993060;28;20566;-62
2023/07/02 11:14:30;;;;;;;9.35;3.13;;;18.90;98.90;;;;;;4993140;28;20410;-62
2023/07/02 11:17:03;;;;;;;16.13;3.38;;;18.90;99.00;;;;;;5009903;28;20046;-62
2023/07/02 11:19:29;;;;;;;9.05;3.22;;;19.00;99.70;;;;;;5011563;28;20085;-62
2023/07/02 11:21:57;;;;;;;9.50;3.13;;;19.20;98.60;;;;;;5011451;28;20390;-61
2023/07/02 11:24:30;;;;;;;8.38;3.00;;;19.10;98.40;;;;;;4993042;28;20038;-62
2023/07/02 11:26:56;;;;;;;13.10;3.35;;;19.30;99.20;;;;;;5011571;28;20041;-62
2023/07/02 11:29:22;;;;;;;7.63;2.80;;;19.30;98.50;;;;;;4977486;28;20050;-62
2023/07/02 11:31:48;;;;;;;14.45;2.47;;;19.10;96.50;;;;;;4992806;28;20049;-61
2023/07/02 11:34:22;;;;;;;10.82;2.53;;;18.80;95.10;;;;;;4977205;28;20045;-61
2023/07/02 11:36:48;;;;;;;9.90;2.47;;;18.60;95.70;;;;;;4992253;28;20042;-61
2023/07/02 11:39:17;;;;;;;10.35;3.72;;;18.30;96.50;;;;;;5010454;28;20547;-61
2023/07/02 11:41:45;;;;;;;9.55;3.00;;;18.40;98.00;;;;;;4977437;28;20053;-61
2023/07/02 11:44:11;;;;;;;9.27;3.35;;;18.50;98.10;;;;;;4992992;28;20041;-61
2023/07/02 11:46:37;;;;;;;10.60;3.95;;;18.60;97.80;;;;;;5011164;28;20096;-61
2023/07/02 11:49:10;;;;;;;9.50;3.28;;;19.00;98.60;;;;;;4993544;28;20042;-61
2023/07/02 11:51:36;;;;;;;10.25;3.30;;;19.30;97.90;;;;;;4992992;28;20117;-61
2023/07/02 11:54:04;;;;;;;7.70;3.10;;;19.70;96.90;;;;;;5011089;28;20103;-61
2023/07/02 11:56:30;;;;;;;11.18;3.80;;;19.80;96.00;;;;;;5010424;28;20038;-61
2023/07/02 11:58:55;;;;;;;9.02;3.78;;;19.80;95.60;;;;;;4992953;28;20095;-61
2023/07/02 12:01:21;;;;;;;9.68;3.95;;;19.70;95.30;;;;;;5010972;28;20053;-61
2023/07/02 12:03:47;;;;;;;9.25;3.58;;;19.30;95.00;;;;;;5010564;28;20101;-61
2023/07/02 12:06:12;;;;;;;8.20;3.00;;;18.90;95.60;;;;;;5009599;28;20070;-61
2023/07/02 12:08:38;;;;;;;9.65;3.47;;;18.60;96.50;;;;;;5011017;28;20046;-61
2023/07/02 12:11:04;;;;;;;10.88;3.20;;;18.50;97.20;;;;;;4992735;28;20060;-60
2023/07/02 12:13:30;;;;;;;13.05;4.35;;;18.40;97.60;;;;;;5010089;28;20045;-60
2023/07/02 12:15:56;;;;;;;8.52;3.60;;;18.30;97.40;;;;;;5010637;28;20060;-61
2023/07/02 12:18:21;;;;;;;12.57;3.75;;;18.20;97.90;;;;;;4992080;28;20060;-61
2023/07/02 12:20:47;;;;;;;10.25;3.72;;;18.10;98.30;;;;;;5009330;28;20034;-61
2023/07/02 12:23:13;;;;;;;8.48;3.20;;;18.30;98.40;;;;;;4992725;28;20041;-61
2023/07/02 12:25:39;;;;;;;9.50;3.50;;;18.40;97.30;;;;;;4992942;28;20046;-61
2023/07/02 12:28:05;;;;;;;9.43;3.60;;;18.40;97.40;;;;;;4992511;28;20053;-61
2023/07/02 12:30:31;;;;;;;9.52;3.50;;;18.30;97.30;;;;;;4992090;28;20049;-61
2023/07/02 12:32:57;;;;;;;10.05;4.00;;;18.30;97.10;;;;;;4992508;28;20041;-61
2023/07/02 12:35:23;;;;;;;10.82;3.80;;;18.10;97.30;;;;;;4990133;28;20045;-61
2023/07/02 12:37:51;;;;;;;11.38;3.72;;;18.10;97.80;;;;;;5010141;28;20046;-61